Time;durP1;ratioP1;P1;durP2;ratioP2;P2;SDS_P1;SDS_P2;PMS_P1;PMS_P2;Temp;Humidity;BMP_temperature;BMP_pressure;BME280_temperature;BME280_humidity;BME280_pressure;Samples;Min_cycle;Max_cycle;Signal;HPM_P1;HPM_P2
2023/01/02 00:01:01;;;;;;;13.83;5.90;;;10.90;99.90;;;;;;4922903;29;20193;-51
2023/01/02 00:03:27;;;;;;;11.70;6.00;;;11.00;99.90;;;;;;4950056;29;20977;-50
2023/01/02 00:05:52;;;;;;;8.23;4.40;;;11.00;99.90;;;;;;4954388;29;20500;-51
2023/01/02 00:08:18;;;;;;;9.67;4.67;;;10.90;99.90;;;;;;4942518;29;20189;-51
2023/01/02 00:10:44;;;;;;;7.57;4.20;;;10.80;99.90;;;;;;4937653;29;20202;-51
2023/01/02 00:13:09;;;;;;;18.87;4.80;;;10.90;1.00;;;;;;4940185;29;20675;-51
2023/01/02 00:15:35;;;;;;;12.83;5.23;;;10.80;1.00;;;;;;4918642;29;20208;-51
2023/01/02 00:18:00;;;;;;;10.53;4.47;;;10.70;99.90;;;;;;4936420;28;20190;-51
2023/01/02 00:20:26;;;;;;;15.33;5.60;;;10.70;1.00;;;;;;4937708;28;20198;-51
2023/01/02 00:22:52;;;;;;;11.20;4.87;;;10.60;1.00;;;;;;4948652;29;20332;-51
2023/01/02 00:25:17;;;;;;;15.83;5.10;;;10.60;1.00;;;;;;4944913;29;20236;-51
2023/01/02 00:27:43;;;;;;;12.23;5.10;;;10.60;99.90;;;;;;4954714;28;20550;-51
2023/01/02 00:30:09;;;;;;;9.37;4.87;;;10.60;99.90;;;;;;4954168;28;20243;-51
2023/01/02 00:32:35;;;;;;;10.30;4.97;;;10.60;32.90;;;;;;4954382;28;20185;-51
2023/01/02 00:35:00;;;;;;;12.00;4.93;;;10.50;99.90;;;;;;4949555;28;20460;-51
2023/01/02 00:37:27;;;;;;;9.10;4.47;;;10.50;1.00;;;;;;4945463;28;20244;-51
2023/01/02 00:39:53;;;;;;;9.10;4.80;;;10.50;1.00;;;;;;4939527;29;20229;-52
2023/01/02 00:42:20;;;;;;;12.73;5.00;;;10.50;99.90;;;;;;4946348;28;20532;-51
2023/01/02 00:44:45;;;;;;;7.90;4.13;;;10.40;1.00;;;;;;4968065;28;20193;-51
2023/01/02 00:47:11;;;;;;;8.47;4.93;;;10.40;1.00;;;;;;4946324;29;21135;-52
2023/01/02 00:49:36;;;;;;;9.40;4.87;;;10.40;99.90;;;;;;4952495;28;20551;-51
2023/01/02 00:52:02;;;;;;;8.40;4.63;;;10.40;99.90;;;;;;4950797;28;20193;-52
2023/01/02 00:54:27;;;;;;;11.63;5.20;;;10.30;99.90;;;;;;4952886;29;20226;-52
2023/01/02 00:56:53;;;;;;;11.40;4.97;;;10.30;99.90;;;;;;4952418;29;20268;-52
2023/01/02 00:59:19;;;;;;;11.10;5.80;;;10.30;1.00;;;;;;4934242;29;20539;-52
2023/01/02 01:01:44;;;;;;;13.67;4.93;;;10.30;1.00;;;;;;4950040;29;20213;-52
2023/01/02 01:04:11;;;;;;;9.00;4.57;;;10.30;1.00;;;;;;4951065;28;20205;-52
2023/01/02 01:06:37;;;;;;;15.00;5.20;;;10.30;1.00;;;;;;4951249;29;20556;-52
2023/01/02 01:09:02;;;;;;;10.80;5.60;;;10.30;1.00;;;;;;4951634;29;20469;-52
2023/01/02 01:11:28;;;;;;;10.80;5.20;;;10.30;1.00;;;;;;4953471;28;20536;-52
2023/01/02 01:13:54;;;;;;;11.67;4.57;;;10.40;1.00;;;;;;4951530;28;20361;-54
2023/01/02 01:16:19;;;;;;;11.00;4.60;;;10.50;1.00;;;;;;4952286;29;20197;-52
2023/01/02 01:18:45;;;;;;;8.70;4.67;;;10.50;1.00;;;;;;4945981;28;20269;-52
2023/01/02 01:21:17;;;;;;;6.97;4.90;;;10.50;1.00;;;;;;4951713;28;20237;-52
2023/01/02 01:23:47;;;;;;;12.97;5.43;;;10.50;1.00;;;;;;4952238;28;20496;-53
2023/01/02 01:26:13;;;;;;;9.33;5.17;;;10.50;1.00;;;;;;4952600;29;20853;-57
2023/01/02 01:28:39;;;;;;;11.07;6.00;;;10.40;1.00;;;;;;4947751;28;20453;-52
2023/01/02 01:31:08;;;;;;;10.07;5.03;;;10.40;1.00;;;;;;4950225;28;20196;-52
2023/01/02 01:33:33;;;;;;;9.23;5.47;;;10.40;1.00;;;;;;4948334;29;20891;-53
2023/01/02 01:36:05;;;;;;;10.73;5.67;;;10.40;1.00;;;;;;4951710;29;20503;-53
2023/01/02 01:38:32;;;;;;;12.37;5.90;;;10.40;1.00;;;;;;4952090;29;20189;-52
2023/01/02 01:40:57;;;;;;;9.77;5.20;;;10.50;1.00;;;;;;4952741;28;20963;-52
2023/01/02 01:43:44;;;;;;;11.70;5.80;;;10.40;1.00;;;;;;4952685;29;20464;-52
2023/01/02 01:46:38;;;;;;;13.33;6.00;;;10.50;1.00;;;;;;4951237;28;20488;-52
2023/01/02 01:49:15;;;;;;;8.60;5.90;;;10.50;1.00;;;;;;4942643;29;20449;-52
2023/01/02 01:51:57;;;;;;;11.97;5.37;;;10.40;1.00;;;;;;4952414;29;20440;-52
2023/01/02 01:54:38;;;;;;;13.90;6.33;;;10.40;1.00;;;;;;4937654;29;21297;-52
2023/01/02 01:57:40;;;;;;;10.60;5.17;;;10.50;1.00;;;;;;4950455;28;20945;-55
2023/01/02 02:00:07;;;;;;;8.87;5.17;;;10.50;1.00;;;;;;4918730;29;20827;-52
2023/01/02 02:02:33;;;;;;;10.23;5.67;;;10.40;1.00;;;;;;4951877;28;20433;-52
2023/01/02 02:05:02;;;;;;;10.77;5.70;;;10.40;1.00;;;;;;4944388;28;20540;-52
2023/01/02 02:07:29;;;;;;;11.43;6.37;;;10.30;1.00;;;;;;4952540;29;20441;-53
2023/01/02 02:10:03;;;;;;;13.03;5.90;;;10.40;1.00;;;;;;4950860;28;21296;-52
2023/01/02 02:12:29;;;;;;;10.87;5.43;;;10.40;1.00;;;;;;4951996;29;20937;-52
2023/01/02 02:14:55;;;;;;;7.40;5.60;;;10.40;1.00;;;;;;4951503;29;20457;-52
2023/01/02 02:17:33;;;;;;;12.43;5.90;;;10.40;1.00;;;;;;4934164;28;20445;-52
2023/01/02 02:20:32;;;;;;;10.57;5.90;;;10.40;1.00;;;;;;4952268;29;20616;-52
2023/01/02 02:23:21;;;;;;;10.90;5.17;;;10.40;1.00;;;;;;4933695;29;20956;-52
2023/01/02 02:26:01;;;;;;;12.43;5.33;;;10.40;1.00;;;;;;4934533;29;20893;-52
2023/01/02 02:28:45;;;;;;;11.43;5.90;;;10.40;1.00;;;;;;4935613;29;20445;-52
2023/01/02 02:31:47;;;;;;;13.73;6.17;;;10.40;1.00;;;;;;4933817;29;20473;-52
2023/01/02 02:34:18;;;;;;;11.27;6.30;;;10.40;1.00;;;;;;4923737;29;20466;-52
2023/01/02 02:37:07;;;;;;;9.07;6.10;;;10.40;1.00;;;;;;4935392;29;20452;-52
2023/01/02 02:40:00;;;;;;;14.47;6.30;;;10.40;1.00;;;;;;4935091;29;20484;-52
2023/01/02 02:42:44;;;;;;;10.50;6.30;;;10.40;1.00;;;;;;4935650;29;20986;-52
2023/01/02 02:45:27;;;;;;;13.40;6.50;;;10.40;1.00;;;;;;4936433;29;20589;-52
2023/01/02 02:48:04;;;;;;;13.97;6.47;;;10.40;1.00;;;;;;4936112;29;20456;-52
2023/01/02 02:50:35;;;;;;;10.27;5.43;;;10.40;1.00;;;;;;4935641;29;20441;-52
2023/01/02 02:53:24;;;;;;;13.83;7.00;;;10.40;1.00;;;;;;4935856;29;20434;-52
2023/01/02 02:55:56;;;;;;;11.70;6.30;;;10.30;1.00;;;;;;4934923;29;20458;-52
2023/01/02 02:58:24;;;;;;;10.93;6.00;;;10.40;1.00;;;;;;4935696;29;20454;-52
2023/01/02 03:00:58;;;;;;;9.13;5.87;;;10.40;1.00;;;;;;4934512;29;20453;-52
2023/01/02 03:03:24;;;;;;;12.30;6.70;;;10.40;1.00;;;;;;4934920;29;20534;-52
2023/01/02 03:06:17;;;;;;;13.17;6.93;;;10.40;1.00;;;;;;4934843;29;20474;-51
2023/01/02 03:09:10;;;;;;;17.20;6.83;;;10.40;1.00;;;;;;4934941;29;20170;-52
2023/01/02 03:11:48;;;;;;;14.20;6.83;;;10.40;1.00;;;;;;4934655;29;20441;-51
2023/01/02 03:14:20;;;;;;;8.97;6.10;;;10.50;1.00;;;;;;4935435;29;20436;-52
2023/01/02 03:16:49;;;;;;;14.67;6.47;;;10.50;1.00;;;;;;4935569;29;20402;-51
2023/01/02 03:19:36;;;;;;;10.83;6.50;;;10.50;1.00;;;;;;4921322;29;20447;-52
2023/01/02 03:22:09;;;;;;;12.03;6.13;;;10.50;1.00;;;;;;4946576;29;20871;-51
2023/01/02 03:24:36;;;;;;;13.17;6.90;;;10.50;1.00;;;;;;4954199;28;20799;-52
2023/01/02 03:27:05;;;;;;;10.67;5.87;;;10.50;1.00;;;;;;4953635;28;20484;-52
2023/01/02 03:29:43;;;;;;;15.60;6.40;;;10.50;1.00;;;;;;4954212;29;20848;-52
2023/01/02 03:32:12;;;;;;;11.83;6.20;;;10.50;1.00;;;;;;4953472;28;21038;-51
2023/01/02 03:34:41;;;;;;;10.70;6.20;;;10.50;1.00;;;;;;4954473;29;20771;-52
2023/01/02 03:37:13;;;;;;;11.03;6.60;;;10.50;1.00;;;;;;4953930;28;20856;-52
2023/01/02 03:39:49;;;;;;;12.30;6.83;;;10.50;1.00;;;;;;4954502;28;20445;-51
2023/01/02 03:42:36;;;;;;;15.73;6.73;;;10.50;1.00;;;;;;4954561;29;20449;-52
2023/01/02 03:45:18;;;;;;;13.07;6.50;;;10.50;1.00;;;;;;4954196;28;20444;-51
2023/01/02 03:47:53;;;;;;;23.53;7.70;;;10.50;1.00;;;;;;4954627;29;21168;-52
2023/01/02 03:50:27;;;;;;;14.07;6.13;;;10.50;1.00;;;;;;4953580;28;20524;-52
2023/01/02 03:52:53;;;;;;;16.33;6.60;;;10.60;1.00;;;;;;4955146;29;20406;-51
2023/01/02 03:55:22;;;;;;;12.83;7.37;;;10.60;1.00;;;;;;4952700;28;20460;-52
2023/01/02 03:58:25;;;;;;;15.93;7.43;;;10.70;1.00;;;;;;4954746;28;20185;-52
2023/01/02 04:00:55;;;;;;;15.43;6.30;;;10.80;1.00;;;;;;4932621;29;20436;-52
2023/01/02 04:03:27;;;;;;;12.10;6.17;;;10.90;1.00;;;;;;4953932;29;20445;-51
2023/01/02 04:06:13;;;;;;;12.10;6.00;;;11.10;1.00;;;;;;4953258;28;20532;-51
2023/01/02 04:08:43;;;;;;;14.87;5.33;;;11.20;1.00;;;;;;4947682;29;20441;-51
2023/01/02 04:11:10;;;;;;;11.87;6.23;;;11.50;1.00;;;;;;4936445;29;20540;-51
2023/01/02 04:13:43;;;;;;;13.17;5.67;;;11.80;1.00;;;;;;4954903;29;20433;-51
2023/01/02 04:16:14;;;;;;;7.30;4.80;;;12.00;1.00;;;;;;4952654;28;20448;-50
2023/01/02 04:18:45;;;;;;;13.80;5.50;;;12.20;1.00;;;;;;4953830;29;20488;-51
2023/01/02 04:21:14;;;;;;;11.40;5.10;;;12.30;99.90;;;;;;4953383;28;20527;-51
2023/01/02 04:23:45;;;;;;;10.80;5.60;;;12.30;99.90;;;;;;4952228;28;20569;-51
2023/01/02 04:26:16;;;;;;;15.60;4.90;;;12.30;99.90;;;;;;4944603;28;20461;-51
2023/01/02 04:28:42;;;;;;;11.83;5.40;;;12.40;99.90;;;;;;4953905;28;20448;-51
2023/01/02 04:31:21;;;;;;;10.40;5.20;;;12.40;99.90;;;;;;4951871;29;20524;-50
2023/01/02 04:33:56;;;;;;;9.17;5.43;;;12.50;99.90;;;;;;4952808;29;20480;-50
2023/01/02 04:36:22;;;;;;;12.97;5.47;;;12.50;99.90;;;;;;4953392;29;20797;-51
2023/01/02 04:38:48;;;;;;;14.97;5.40;;;12.60;99.90;;;;;;4952938;28;20448;-51
2023/01/02 04:41:25;;;;;;;9.53;4.60;;;12.60;90.70;;;;;;4953524;29;20441;-51
2023/01/02 04:43:52;;;;;;;15.70;6.77;;;12.60;65.60;;;;;;4951269;29;20457;-51
2023/01/02 04:46:17;;;;;;;12.83;4.90;;;12.60;65.90;;;;;;4936646;29;20474;-51
2023/01/02 04:48:43;;;;;;;11.30;5.30;;;12.50;52.90;;;;;;4940478;29;20767;-50
2023/01/02 04:51:08;;;;;;;15.10;5.20;;;12.50;91.70;;;;;;4954096;28;20609;-51
2023/01/02 04:53:34;;;;;;;17.57;5.63;;;12.50;98.20;;;;;;4950931;28;20189;-51
2023/01/02 04:55:59;;;;;;;10.63;5.37;;;12.50;99.90;;;;;;4952779;28;20217;-51
2023/01/02 04:58:26;;;;;;;16.07;5.83;;;12.50;99.90;;;;;;4953013;29;20668;-51
2023/01/02 05:00:52;;;;;;;19.17;4.97;;;12.50;99.90;;;;;;4952818;29;20196;-51
2023/01/02 05:03:18;;;;;;;13.43;5.63;;;12.50;99.90;;;;;;4952352;28;20480;-51
2023/01/02 05:05:44;;;;;;;15.20;5.40;;;12.50;99.90;;;;;;4952009;28;21168;-51
2023/01/02 05:08:09;;;;;;;9.13;5.33;;;12.50;99.90;;;;;;4953656;29;20158;-50
2023/01/02 05:10:35;;;;;;;15.90;5.33;;;12.60;99.90;;;;;;4947412;28;20725;-50
2023/01/02 05:13:00;;;;;;;8.43;4.57;;;12.60;98.40;;;;;;4952236;28;20221;-51
2023/01/02 05:15:27;;;;;;;13.63;4.40;;;12.50;99.90;;;;;;4951636;28;20197;-51
2023/01/02 05:17:53;;;;;;;7.93;4.80;;;12.60;99.90;;;;;;4953575;29;20176;-51
2023/01/02 05:20:19;;;;;;;17.90;5.67;;;12.50;99.90;;;;;;4952195;29;20445;-51
2023/01/02 05:25:34;;;;;;;12.23;5.53;;;12.50;99.90;;;;;;4950863;28;20272;-51
2023/01/02 05:28:01;;;;;;;10.40;5.13;;;12.40;99.90;;;;;;4952668;29;20528;-51
2023/01/02 05:30:27;;;;;;;10.23;5.23;;;12.40;99.90;;;;;;4952369;29;20954;-51
2023/01/02 05:32:53;;;;;;;15.03;6.00;;;12.40;99.90;;;;;;4951587;28;20448;-51
2023/01/02 05:35:19;;;;;;;15.03;5.33;;;12.40;99.90;;;;;;4952627;29;20198;-51
2023/01/02 05:37:44;;;;;;;14.20;5.50;;;12.40;99.90;;;;;;4953421;29;20217;-51
2023/01/02 05:40:10;;;;;;;12.50;5.80;;;12.40;99.90;;;;;;4951670;29;20527;-51
2023/01/02 05:42:36;;;;;;;11.47;5.50;;;12.40;99.90;;;;;;4951283;28;20186;-50
2023/01/02 05:45:03;;;;;;;10.27;5.40;;;12.40;99.90;;;;;;4935696;29;20457;-51
2023/01/02 05:47:29;;;;;;;10.57;5.23;;;12.40;99.90;;;;;;4952190;29;20202;-51
2023/01/02 05:49:54;;;;;;;12.53;5.80;;;12.30;99.90;;;;;;4952058;29;20800;-50
2023/01/02 05:52:20;;;;;;;9.83;5.17;;;12.30;99.90;;;;;;4950504;28;20194;-51
2023/01/02 05:54:45;;;;;;;9.20;5.63;;;12.30;99.90;;;;;;4951594;29;20209;-51
2023/01/02 05:57:11;;;;;;;21.10;5.90;;;12.30;99.90;;;;;;4951932;29;20557;-50
2023/01/02 05:59:36;;;;;;;9.97;5.33;;;12.30;99.90;;;;;;4952911;28;20212;-51
2023/01/02 06:02:02;;;;;;;11.23;5.20;;;12.30;99.90;;;;;;4954771;28;20201;-51
2023/01/02 06:04:28;;;;;;;8.30;5.13;;;12.30;99.90;;;;;;4956767;29;20568;-51
2023/01/02 06:06:53;;;;;;;15.13;5.70;;;12.30;99.90;;;;;;4956455;29;20218;-50
2023/01/02 06:09:19;;;;;;;14.57;6.00;;;12.20;99.90;;;;;;4955977;29;20249;-51
2023/01/02 06:11:44;;;;;;;15.60;6.47;;;12.30;99.90;;;;;;4954861;28;20182;-50
2023/01/02 06:14:10;;;;;;;15.87;5.43;;;12.30;99.90;;;;;;4955355;29;20190;-51
2023/01/02 06:16:37;;;;;;;14.63;5.50;;;12.30;99.90;;;;;;4956055;29;20671;-51
2023/01/02 06:19:04;;;;;;;15.43;5.70;;;12.30;99.90;;;;;;4955682;28;20190;-51
2023/01/02 06:21:30;;;;;;;11.67;5.07;;;12.20;99.90;;;;;;4955775;28;20491;-50
2023/01/02 06:23:57;;;;;;;10.43;5.50;;;12.20;99.90;;;;;;4955951;28;20444;-51
2023/01/02 06:26:24;;;;;;;9.20;5.47;;;12.20;1.00;;;;;;4955651;28;20248;-51
2023/01/02 06:28:52;;;;;;;12.40;5.87;;;12.20;1.00;;;;;;4955399;29;20452;-51
2023/01/02 06:31:19;;;;;;;13.50;6.03;;;12.20;1.00;;;;;;4954375;28;20444;-51
2023/01/02 06:33:44;;;;;;;18.00;7.60;;;12.20;1.00;;;;;;4954669;28;20457;-51
2023/01/02 06:36:13;;;;;;;18.60;6.80;;;12.20;1.00;;;;;;4956597;29;20409;-51
2023/01/02 06:38:39;;;;;;;16.97;7.83;;;12.10;1.00;;;;;;4955315;29;20564;-52
2023/01/02 06:41:06;;;;;;;23.00;7.77;;;12.10;1.00;;;;;;4954639;28;20441;-52
2023/01/02 06:43:32;;;;;;;13.90;6.50;;;12.10;1.00;;;;;;4955038;29;20546;-52
2023/01/02 06:46:00;;;;;;;12.37;6.50;;;12.10;1.00;;;;;;4955858;28;20477;-51
2023/01/02 06:48:26;;;;;;;18.77;7.30;;;12.20;1.00;;;;;;4955353;29;20499;-52
2023/01/02 06:50:51;;;;;;;15.13;6.97;;;12.10;1.00;;;;;;4956013;29;20456;-52
2023/01/02 06:53:17;;;;;;;15.27;7.30;;;12.10;1.00;;;;;;4953320;28;21128;-52
2023/01/02 06:55:54;;;;;;;13.67;6.93;;;12.20;1.00;;;;;;4955105;28;20322;-51
2023/01/02 06:58:20;;;;;;;16.57;7.70;;;12.10;1.00;;;;;;4955947;29;20170;-51
2023/01/02 07:00:47;;;;;;;9.93;6.33;;;12.10;1.00;;;;;;4940582;29;20942;-52
2023/01/02 07:03:14;;;;;;;23.70;7.20;;;12.10;1.00;;;;;;4954261;28;20957;-51
2023/01/02 07:05:39;;;;;;;13.53;6.67;;;12.10;1.00;;;;;;4954761;29;20501;-52
2023/01/02 07:08:05;;;;;;;15.93;6.60;;;12.10;1.00;;;;;;4954899;29;20480;-52
2023/01/02 07:10:31;;;;;;;12.70;7.20;;;12.10;1.00;;;;;;4955113;28;20193;-52
2023/01/02 07:12:56;;;;;;;11.73;7.23;;;12.10;1.00;;;;;;4943376;29;20208;-51
2023/01/02 07:15:22;;;;;;;15.60;7.03;;;12.10;1.00;;;;;;4955240;29;20244;-51
2023/01/02 07:17:48;;;;;;;12.13;7.53;;;12.10;1.00;;;;;;4954840;29;20193;-50
2023/01/02 07:20:14;;;;;;;11.97;6.80;;;12.20;1.00;;;;;;4937553;29;20244;-52
2023/01/02 07:22:39;;;;;;;14.07;6.80;;;12.20;1.00;;;;;;4954293;28;20250;-49
2023/01/02 07:25:05;;;;;;;16.87;7.20;;;12.20;1.00;;;;;;4954549;29;20204;-52
2023/01/02 07:27:31;;;;;;;13.50;7.43;;;12.20;1.00;;;;;;4954777;29;20244;-52
2023/01/02 07:29:57;;;;;;;12.60;7.60;;;12.20;1.00;;;;;;4953287;29;20429;-52
2023/01/02 07:32:23;;;;;;;13.50;7.33;;;12.30;1.00;;;;;;4953999;28;20189;-52
2023/01/02 07:34:48;;;;;;;16.53;6.80;;;12.20;1.00;;;;;;4954403;29;20217;-49
2023/01/02 07:37:14;;;;;;;13.03;7.00;;;12.30;1.00;;;;;;4953993;29;20440;-52
2023/01/02 07:39:39;;;;;;;13.63;7.03;;;12.20;1.00;;;;;;4954498;29;20189;-51
2023/01/02 07:42:05;;;;;;;17.20;7.47;;;12.30;1.00;;;;;;4952616;28;20275;-52
2023/01/02 07:44:31;;;;;;;12.27;7.30;;;12.30;1.00;;;;;;4954194;29;20198;-52
2023/01/02 07:46:56;;;;;;;18.10;7.30;;;12.30;1.00;;;;;;4954068;29;20217;-51
2023/01/02 07:49:22;;;;;;;13.20;6.90;;;12.30;1.00;;;;;;4953961;29;20195;-52
2023/01/02 07:51:48;;;;;;;12.63;6.57;;;12.30;1.00;;;;;;4953101;28;20217;-52
2023/01/02 07:54:13;;;;;;;11.03;5.80;;;12.30;1.00;;;;;;4952592;28;20201;-52
2023/01/02 07:56:39;;;;;;;14.43;6.90;;;12.30;1.00;;;;;;4953657;28;20201;-52
2023/01/02 07:59:04;;;;;;;13.10;6.80;;;12.40;1.00;;;;;;4953029;29;20201;-51
2023/01/02 08:01:30;;;;;;;13.73;6.70;;;12.30;1.00;;;;;;4954096;28;20529;-51
2023/01/02 08:03:55;;;;;;;14.77;6.47;;;12.30;1.00;;;;;;4949065;29;20213;-52
2023/01/02 08:06:21;;;;;;;17.73;6.20;;;12.30;1.00;;;;;;4952286;28;20221;-52
2023/01/02 08:08:47;;;;;;;18.50;6.70;;;12.40;1.00;;;;;;4953707;28;20535;-53
2023/01/02 08:11:18;;;;;;;14.33;6.20;;;12.40;1.00;;;;;;4949253;28;20182;-52
2023/01/02 08:13:44;;;;;;;16.73;6.27;;;12.50;1.00;;;;;;4953812;28;20197;-51
2023/01/02 08:16:13;;;;;;;21.47;6.63;;;12.50;1.00;;;;;;4953443;28;20433;-52
2023/01/02 08:18:39;;;;;;;16.73;7.47;;;12.50;1.00;;;;;;4953852;29;20215;-51
2023/01/02 08:21:05;;;;;;;13.80;5.90;;;12.50;1.00;;;;;;4953995;28;20469;-52
2023/01/02 08:23:31;;;;;;;13.20;6.30;;;12.50;1.00;;;;;;4944445;28;20217;-51
2023/01/02 08:26:01;;;;;;;14.10;7.10;;;12.50;1.00;;;;;;4951702;28;20523;-52
2023/01/02 08:28:27;;;;;;;14.47;7.30;;;12.50;1.00;;;;;;4953081;28;20441;-51
2023/01/02 08:30:53;;;;;;;8.73;6.50;;;12.60;99.90;;;;;;4952377;28;20447;-52
2023/01/02 08:33:19;;;;;;;12.57;6.20;;;12.60;99.90;;;;;;4950740;28;20532;-52
2023/01/02 08:35:44;;;;;;;16.23;6.80;;;12.60;99.90;;;;;;4952101;29;20293;-51
2023/01/02 08:38:10;;;;;;;17.33;6.63;;;12.60;99.90;;;;;;4953536;29;20660;-52
2023/01/02 08:40:36;;;;;;;13.47;6.27;;;12.70;99.90;;;;;;4952123;29;20224;-52
2023/01/02 08:43:01;;;;;;;16.67;6.80;;;12.60;99.90;;;;;;4951173;28;20198;-52
2023/01/02 08:45:27;;;;;;;13.20;7.10;;;12.60;99.90;;;;;;4952279;28;20248;-51
2023/01/02 08:47:52;;;;;;;11.07;6.33;;;12.60;99.90;;;;;;4955019;28;20212;-52
2023/01/02 08:50:18;;;;;;;12.40;6.70;;;12.60;99.90;;;;;;4953541;29;20190;-51
2023/01/02 08:52:45;;;;;;;13.17;6.10;;;12.60;99.90;;;;;;4949065;29;20194;-52
2023/01/02 08:55:12;;;;;;;18.37;7.23;;;12.70;99.90;;;;;;4935911;29;20185;-52
2023/01/02 08:57:37;;;;;;;12.50;7.00;;;12.70;99.90;;;;;;4953433;29;20477;-52
2023/01/02 09:00:03;;;;;;;9.50;6.60;;;12.80;99.90;;;;;;4953221;29;20430;-51
2023/01/02 09:02:29;;;;;;;14.10;6.50;;;12.80;99.90;;;;;;4953888;29;20249;-51
2023/01/02 09:04:55;;;;;;;10.30;6.80;;;12.80;99.90;;;;;;4952238;29;20966;-51
2023/01/02 09:07:20;;;;;;;13.67;7.00;;;12.80;99.90;;;;;;4944336;29;20863;-52
2023/01/02 09:09:46;;;;;;;13.23;6.60;;;12.80;99.90;;;;;;4952470;29;20186;-51
2023/01/02 09:12:12;;;;;;;10.50;6.20;;;12.80;99.90;;;;;;4952979;29;20181;-51
2023/01/02 09:14:37;;;;;;;11.27;6.70;;;12.80;99.90;;;;;;4953721;29;20180;-51
2023/01/02 09:17:03;;;;;;;12.33;6.30;;;12.80;99.90;;;;;;4953347;29;20186;-51
2023/01/02 09:19:29;;;;;;;12.60;6.70;;;12.80;99.90;;;;;;4952858;29;20277;-51
2023/01/02 09:21:55;;;;;;;11.70;6.50;;;12.80;99.90;;;;;;4953414;29;20240;-51
2023/01/02 09:24:20;;;;;;;10.17;6.37;;;12.90;99.90;;;;;;4953054;28;20838;-51
2023/01/02 09:26:46;;;;;;;13.20;6.33;;;12.90;99.90;;;;;;4953042;29;20274;-51
2023/01/02 09:29:12;;;;;;;9.27;6.17;;;12.90;99.90;;;;;;4953226;29;20186;-51
2023/01/02 09:31:38;;;;;;;10.70;6.20;;;13.00;99.90;;;;;;4953046;29;20778;-50
2023/01/02 09:34:04;;;;;;;13.00;6.50;;;13.00;99.90;;;;;;4953092;29;20504;-51
2023/01/02 09:36:31;;;;;;;15.83;6.37;;;13.00;99.90;;;;;;4953287;28;20422;-51
2023/01/02 09:38:59;;;;;;;12.53;6.40;;;13.00;82.30;;;;;;4953033;28;20464;-51
2023/01/02 09:41:30;;;;;;;10.93;6.40;;;13.10;49.20;;;;;;4953035;29;20429;-51
2023/01/02 09:44:05;;;;;;;9.03;5.93;;;13.00;1.00;;;;;;4952944;29;20978;-51
2023/01/02 09:46:32;;;;;;;9.27;6.20;;;13.10;1.00;;;;;;4951855;28;21058;-50
2023/01/02 09:49:00;;;;;;;9.43;6.03;;;13.10;1.00;;;;;;4940203;29;20429;-51
2023/01/02 09:51:26;;;;;;;11.57;6.37;;;13.20;1.00;;;;;;4953282;28;20402;-52
2023/01/02 09:53:52;;;;;;;11.47;6.30;;;13.10;1.00;;;;;;4937308;29;20492;-50
2023/01/02 09:56:32;;;;;;;13.70;6.20;;;13.20;1.00;;;;;;4956040;29;20811;-51
2023/01/02 09:59:13;;;;;;;10.87;5.90;;;13.20;1.00;;;;;;4955393;29;20178;-50
2023/01/02 10:01:56;;;;;;;11.60;5.80;;;13.20;1.00;;;;;;4955413;28;20904;-49
2023/01/02 10:04:30;;;;;;;8.30;5.33;;;13.30;1.00;;;;;;4952536;29;20467;-51
2023/01/02 10:07:11;;;;;;;12.77;5.77;;;13.30;1.00;;;;;;4956757;29;20500;-52
2023/01/02 10:09:50;;;;;;;10.13;6.00;;;13.30;1.00;;;;;;4956601;29;20888;-51
2023/01/02 10:12:33;;;;;;;9.67;6.10;;;13.30;1.00;;;;;;4938347;29;20464;-50
2023/01/02 10:15:10;;;;;;;8.97;5.67;;;13.30;99.90;;;;;;4945618;29;20504;-50
2023/01/02 10:17:43;;;;;;;10.57;5.23;;;13.30;99.90;;;;;;4933701;29;20424;-51
2023/01/02 10:20:27;;;;;;;13.60;6.20;;;13.30;99.90;;;;;;4946552;29;20437;-50
2023/01/02 10:23:02;;;;;;;7.80;5.30;;;13.30;99.90;;;;;;4952779;29;20473;-50
2023/01/02 10:25:37;;;;;;;8.50;5.50;;;13.30;99.90;;;;;;4952502;29;20464;-47
2023/01/02 10:28:13;;;;;;;9.10;5.70;;;13.30;99.90;;;;;;4951209;29;20457;-49
2023/01/02 10:30:49;;;;;;;14.97;6.00;;;13.30;99.90;;;;;;4951818;29;21106;-50
2023/01/02 10:33:22;;;;;;;12.50;5.20;;;13.30;99.90;;;;;;4933829;29;20424;-50
2023/01/02 10:35:55;;;;;;;6.60;5.30;;;13.30;99.90;;;;;;4949521;29;20496;-50
2023/01/02 10:38:21;;;;;;;9.20;5.20;;;13.30;99.90;;;;;;4935294;29;20437;-50
2023/01/02 10:40:49;;;;;;;11.97;6.10;;;13.30;99.90;;;;;;4952666;29;20456;-50
2023/01/02 10:43:16;;;;;;;11.67;6.40;;;13.30;99.90;;;;;;4953105;29;20352;-50
2023/01/02 10:45:42;;;;;;;11.60;5.37;;;13.30;99.90;;;;;;4953453;28;21160;-50
2023/01/02 10:48:11;;;;;;;9.93;5.87;;;13.30;99.90;;;;;;4955365;29;20449;-50
2023/01/02 10:50:43;;;;;;;9.73;5.27;;;13.30;99.90;;;;;;4955807;29;20244;-50
2023/01/02 10:53:32;;;;;;;7.87;5.30;;;13.20;99.90;;;;;;4954778;28;20441;-50
2023/01/02 10:56:03;;;;;;;9.80;5.63;;;13.20;99.90;;;;;;4956782;29;20422;-49
2023/01/02 10:58:31;;;;;;;13.80;5.23;;;13.10;99.90;;;;;;4955485;28;20596;-50
2023/01/02 11:01:17;;;;;;;10.60;5.03;;;13.10;1.00;;;;;;4938814;29;20449;-49
2023/01/02 11:03:48;;;;;;;5.43;4.80;;;13.10;1.00;;;;;;4956623;29;20409;-50
2023/01/02 11:06:25;;;;;;;8.53;4.67;;;13.00;1.00;;;;;;4955913;29;20469;-50
2023/01/02 11:08:59;;;;;;;10.07;5.00;;;13.00;1.00;;;;;;4955740;28;20445;-51
2023/01/02 11:11:26;;;;;;;11.97;5.10;;;12.90;1.00;;;;;;4954916;28;20421;-50
2023/01/02 11:13:54;;;;;;;8.03;4.40;;;12.90;1.00;;;;;;4955717;29;20798;-51
2023/01/02 11:16:22;;;;;;;6.33;4.33;;;12.90;1.00;;;;;;4955580;29;20472;-50
2023/01/02 11:18:53;;;;;;;5.03;4.27;;;12.90;1.00;;;;;;4955912;29;20511;-50
2023/01/02 11:21:31;;;;;;;6.00;4.40;;;12.90;1.00;;;;;;4956087;28;20481;-50
2023/01/02 11:24:00;;;;;;;6.80;4.73;;;12.80;1.00;;;;;;4955220;28;20551;-50
2023/01/02 11:26:27;;;;;;;7.90;4.57;;;12.60;41.40;;;;;;4955202;29;20953;-50
2023/01/02 11:28:55;;;;;;;7.60;3.67;;;12.50;99.90;;;;;;4953828;29;20930;-50
2023/01/02 11:31:22;;;;;;;5.77;3.53;;;12.40;99.90;;;;;;4955369;28;20496;-50
2023/01/02 11:33:47;;;;;;;3.27;2.97;;;12.30;99.90;;;;;;4937932;29;20467;-51
2023/01/02 11:36:16;;;;;;;3.47;2.60;;;12.30;99.90;;;;;;4954960;28;20427;-50
2023/01/02 11:38:53;;;;;;;1.93;1.40;;;12.20;99.90;;;;;;4954684;29;20576;-51
2023/01/02 11:44:25;;;;;;;1.60;1.20;;;11.50;88.40;;;;;;4953162;29;20500;-51
2023/01/02 11:46:52;;;;;;;2.40;1.10;;;11.20;76.50;;;;;;4946238;29;20465;-50
2023/01/02 11:49:22;;;;;;;1.30;1.20;;;11.00;42.50;;;;;;4938296;28;20449;-50
2023/01/02 11:52:01;;;;;;;1.10;1.00;;;10.70;77.20;;;;;;4950827;28;20442;-50
2023/01/02 11:54:37;;;;;;;2.70;1.10;;;10.60;88.20;;;;;;4949834;28;20445;-49
2023/01/02 11:57:04;;;;;;;1.30;1.20;;;10.50;93.00;;;;;;4952332;28;20448;-50
2023/01/02 11:59:39;;;;;;;1.30;1.20;;;10.40;99.90;;;;;;4948614;28;20437;-51
2023/01/02 12:02:19;;;;;;;1.13;1.03;;;10.40;99.90;;;;;;4951840;28;20459;-50
2023/01/02 12:04:45;;;;;;;1.20;1.10;;;10.30;99.90;;;;;;4945752;28;20488;-50
2023/01/02 12:07:25;;;;;;;1.40;1.30;;;10.20;99.90;;;;;;4954558;29;20544;-49
2023/01/02 12:10:07;;;;;;;1.23;1.10;;;10.20;99.90;;;;;;4954670;29;20196;-50
2023/01/02 12:12:38;;;;;;;0.90;0.90;;;10.20;99.90;;;;;;4950168;29;20449;-50
2023/01/02 12:15:17;;;;;;;1.30;1.20;;;10.10;99.90;;;;;;4954052;29;20433;-50
2023/01/02 12:18:08;;;;;;;2.70;1.20;;;10.10;99.90;;;;;;4953679;29;20417;-52
2023/01/02 12:20:53;;;;;;;1.97;1.83;;;10.10;99.90;;;;;;4945739;29;20862;-50
2023/01/02 12:23:50;;;;;;;1.27;1.17;;;10.10;99.90;;;;;;4948615;28;20457;-50
2023/01/02 12:26:33;;;;;;;4.40;1.40;;;10.10;99.90;;;;;;4949974;28;20480;-50
2023/01/02 12:29:11;;;;;;;1.93;1.60;;;9.90;99.90;;;;;;4934281;29;20813;-50
2023/01/02 12:32:03;;;;;;;1.80;1.50;;;9.90;99.90;;;;;;4950779;29;20512;-50
2023/01/02 12:34:45;;;;;;;2.40;1.33;;;9.90;99.90;;;;;;4935032;29;20929;-50
2023/01/02 12:37:35;;;;;;;1.87;1.20;;;9.90;99.90;;;;;;4946669;29;20508;-50
2023/01/02 12:40:25;;;;;;;1.30;1.20;;;9.80;93.70;;;;;;4949186;29;20453;-50
2023/01/02 12:43:28;;;;;;;1.50;1.37;;;9.70;89.90;;;;;;4953701;29;20433;-50
2023/01/02 12:46:28;;;;;;;3.97;1.60;;;9.70;67.90;;;;;;4953146;28;20477;-50
2023/01/02 12:49:02;;;;;;;2.30;1.37;;;9.60;52.20;;;;;;4954021;29;20444;-50
2023/01/02 12:51:35;;;;;;;3.67;1.70;;;9.60;98.10;;;;;;4953851;29;20540;-50
2023/01/02 12:54:22;;;;;;;3.37;1.80;;;9.50;99.90;;;;;;4952797;29;20429;-50
2023/01/02 12:57:16;;;;;;;1.93;1.73;;;9.50;99.90;;;;;;4953777;29;20452;-51
2023/01/02 13:00:06;;;;;;;2.80;1.70;;;9.50;99.90;;;;;;4950154;28;20536;-50
2023/01/02 13:02:47;;;;;;;2.47;1.50;;;9.50;99.90;;;;;;4950503;28;20504;-50
2023/01/02 13:05:18;;;;;;;1.87;1.60;;;9.50;99.90;;;;;;4953624;29;20411;-50
2023/01/02 13:07:56;;;;;;;1.63;1.40;;;9.50;99.90;;;;;;4951283;28;20547;-50
2023/01/02 13:10:26;;;;;;;2.30;1.60;;;9.40;99.90;;;;;;4953628;29;20413;-50